sensor_id;sensor_type;location;lat;lon;timestamp;temperature;humidity
75363;DHT22;64122;51.988;5.892;2023-03-01T00:02:01;3.13;48.44
75363;DHT22;64122;51.988;5.892;2023-03-01T00:04:31;3.11;48.55
75363;DHT22;64122;51.988;5.892;2023-03-01T00:07:02;3.10;48.64
75363;DHT22;64122;51.988;5.892;2023-03-01T00:09:31;3.11;48.59
75363;DHT22;64122;51.988;5.892;2023-03-01T00:12:00;3.06;48.79
75363;DHT22;64122;51.988;5.892;2023-03-01T00:14:29;3.06;48.81
75363;DHT22;64122;51.988;5.892;2023-03-01T00:17:02;3.05;48.86
75363;DHT22;64122;51.988;5.892;2023-03-01T00:19:31;3.03;48.92
75363;DHT22;64122;51.988;5.892;2023-03-01T00:22:00;3.01;48.95
75363;DHT22;64122;51.988;5.892;2023-03-01T00:24:30;3.00;48.99
75363;DHT22;64122;51.988;5.892;2023-03-01T00:26:59;2.96;49.15
75363;DHT22;64122;51.988;5.892;2023-03-01T00:29:28;2.95;49.19
75363;DHT22;64122;51.988;5.892;2023-03-01T00:31:57;2.93;49.27
75363;DHT22;64122;51.988;5.892;2023-03-01T00:34:29;2.90;49.34
75363;DHT22;64122;51.988;5.892;2023-03-01T00:36:59;2.87;49.54
75363;DHT22;64122;51.988;5.892;2023-03-01T00:39:31;2.80;49.66
75363;DHT22;64122;51.988;5.892;2023-03-01T00:42:01;2.73;49.84
75363;DHT22;64122;51.988;5.892;2023-03-01T00:44:30;2.69;49.90
75363;DHT22;64122;51.988;5.892;2023-03-01T00:47:00;2.66;49.98
75363;DHT22;64122;51.988;5.892;2023-03-01T00:49:33;2.65;49.92
75363;DHT22;64122;51.988;5.892;2023-03-01T00:52:02;2.60;50.06
75363;DHT22;64122;51.988;5.892;2023-03-01T00:54:31;2.57;50.27
75363;DHT22;64122;51.988;5.892;2023-03-01T00:57:00;2.53;50.34
75363;DHT22;64122;51.988;5.892;2023-03-01T00:59:30;2.49;50.50
75363;DHT22;64122;51.988;5.892;2023-03-01T01:01:59;2.44;50.68
75363;DHT22;64122;51.988;5.892;2023-03-01T01:04:28;2.40;50.79
75363;DHT22;64122;51.988;5.892;2023-03-01T01:07:00;2.35;50.96
75363;DHT22;64122;51.988;5.892;2023-03-01T01:09:29;2.27;51.24
75363;DHT22;64122;51.988;5.892;2023-03-01T01:11:59;2.20;51.40
75363;DHT22;64122;51.988;5.892;2023-03-01T01:14:28;2.14;51.62
75363;DHT22;64122;51.988;5.892;2023-03-01T01:16:58;2.12;51.64
75363;DHT22;64122;51.988;5.892;2023-03-01T01:19:27;2.09;51.59
75363;DHT22;64122;51.988;5.892;2023-03-01T01:21:56;2.07;51.70
75363;DHT22;64122;51.988;5.892;2023-03-01T01:24:28;2.02;51.91
75363;DHT22;64122;51.988;5.892;2023-03-01T01:26:58;1.97;52.11
75363;DHT22;64122;51.988;5.892;2023-03-01T01:29:27;1.93;52.32
75363;DHT22;64122;51.988;5.892;2023-03-01T01:31:56;1.86;52.48
75363;DHT22;64122;51.988;5.892;2023-03-01T01:34:26;1.81;52.62
75363;DHT22;64122;51.988;5.892;2023-03-01T01:36:55;1.73;53.00
75363;DHT22;64122;51.988;5.892;2023-03-01T01:39:31;1.70;53.14
75363;DHT22;64122;51.988;5.892;2023-03-01T01:42:00;1.66;53.32
75363;DHT22;64122;51.988;5.892;2023-03-01T01:44:30;1.65;53.36
75363;DHT22;64122;51.988;5.892;2023-03-01T01:47:01;1.66;53.44
75363;DHT22;64122;51.988;5.892;2023-03-01T01:49:37;1.65;53.40
75363;DHT22;64122;51.988;5.892;2023-03-01T01:52:09;1.61;53.57
75363;DHT22;64122;51.988;5.892;2023-03-01T01:54:45;1.57;53.64
75363;DHT22;64122;51.988;5.892;2023-03-01T01:57:19;1.54;53.83
75363;DHT22;64122;51.988;5.892;2023-03-01T01:59:51;1.53;53.85
75363;DHT22;64122;51.988;5.892;2023-03-01T02:02:21;1.49;54.11
75363;DHT22;64122;51.988;5.892;2023-03-01T02:04:55;1.47;54.23
75363;DHT22;64122;51.988;5.892;2023-03-01T02:07:30;1.47;54.25
75363;DHT22;64122;51.988;5.892;2023-03-01T02:10:02;1.46;54.26
75363;DHT22;64122;51.988;5.892;2023-03-01T02:12:32;1.46;54.23
75363;DHT22;64122;51.988;5.892;2023-03-01T02:15:02;1.47;54.16
75363;DHT22;64122;51.988;5.892;2023-03-01T02:17:32;1.43;54.42
75363;DHT22;64122;51.988;5.892;2023-03-01T02:20:13;1.42;54.35
75363;DHT22;64122;51.988;5.892;2023-03-01T02:22:45;1.41;54.51
75363;DHT22;64122;51.988;5.892;2023-03-01T02:25:35;1.39;54.48
75363;DHT22;64122;51.988;5.892;2023-03-01T02:30:47;1.40;54.65
75363;DHT22;64122;51.988;5.892;2023-03-01T02:33:30;1.40;54.66
75363;DHT22;64122;51.988;5.892;2023-03-01T02:36:04;1.42;54.64
75363;DHT22;64122;51.988;5.892;2023-03-01T02:38:35;1.25;55.07
75363;DHT22;64122;51.988;5.892;2023-03-01T02:41:05;1.37;54.91
75363;DHT22;64122;51.988;5.892;2023-03-01T02:43:36;1.41;54.75
75363;DHT22;64122;51.988;5.892;2023-03-01T02:46:12;1.42;54.75
75363;DHT22;64122;51.988;5.892;2023-03-01T02:48:43;1.43;54.84
75363;DHT22;64122;51.988;5.892;2023-03-01T02:51:26;1.46;54.55
75363;DHT22;64122;51.988;5.892;2023-03-01T02:54:08;1.48;54.52
75363;DHT22;64122;51.988;5.892;2023-03-01T02:56:40;1.47;54.75
75363;DHT22;64122;51.988;5.892;2023-03-01T02:59:10;1.49;54.69
75363;DHT22;64122;51.988;5.892;2023-03-01T03:01:43;1.51;54.55
75363;DHT22;64122;51.988;5.892;2023-03-01T03:04:17;1.54;54.42
75363;DHT22;64122;51.988;5.892;2023-03-01T03:06:50;1.53;54.56
75363;DHT22;64122;51.988;5.892;2023-03-01T03:09:20;1.53;54.52
75363;DHT22;64122;51.988;5.892;2023-03-01T03:11:49;1.54;54.51
75363;DHT22;64122;51.988;5.892;2023-03-01T03:14:19;1.55;54.51
75363;DHT22;64122;51.988;5.892;2023-03-01T03:16:51;1.56;54.57
75363;DHT22;64122;51.988;5.892;2023-03-01T03:19:20;1.55;54.60
75363;DHT22;64122;51.988;5.892;2023-03-01T03:21:50;1.57;54.55
75363;DHT22;64122;51.988;5.892;2023-03-01T03:24:19;1.56;54.55
75363;DHT22;64122;51.988;5.892;2023-03-01T03:26:48;1.58;54.44
75363;DHT22;64122;51.988;5.892;2023-03-01T03:29:17;1.61;54.38
75363;DHT22;64122;51.988;5.892;2023-03-01T03:31:46;1.62;54.30
75363;DHT22;64122;51.988;5.892;2023-03-01T03:34:18;1.65;54.18
75363;DHT22;64122;51.988;5.892;2023-03-01T03:36:48;1.63;54.23
75363;DHT22;64122;51.988;5.892;2023-03-01T03:39:17;1.64;54.14
75363;DHT22;64122;51.988;5.892;2023-03-01T03:41:46;1.67;54.06
75363;DHT22;64122;51.988;5.892;2023-03-01T03:44:15;1.67;54.06
75363;DHT22;64122;51.988;5.892;2023-03-01T03:46:45;1.65;54.16
75363;DHT22;64122;51.988;5.892;2023-03-01T03:49:14;1.67;54.10
75363;DHT22;64122;51.988;5.892;2023-03-01T03:51:47;1.68;53.98
75363;DHT22;64122;51.988;5.892;2023-03-01T03:54:17;1.67;54.14
75363;DHT22;64122;51.988;5.892;2023-03-01T03:56:46;1.68;54.05
75363;DHT22;64122;51.988;5.892;2023-03-01T03:59:15;1.68;54.13
75363;DHT22;64122;51.988;5.892;2023-03-01T04:01:47;1.66;54.17
75363;DHT22;64122;51.988;5.892;2023-03-01T04:04:19;1.64;54.25
75363;DHT22;64122;51.988;5.892;2023-03-01T04:06:51;1.66;54.26
75363;DHT22;64122;51.988;5.892;2023-03-01T04:09:20;1.65;54.28
75363;DHT22;64122;51.988;5.892;2023-03-01T04:11:49;1.64;54.31
75363;DHT22;64122;51.988;5.892;2023-03-01T04:14:19;1.64;54.29
75363;DHT22;64122;51.988;5.892;2023-03-01T04:16:48;1.62;54.40
75363;DHT22;64122;51.988;5.892;2023-03-01T04:19:17;1.61;54.39
75363;DHT22;64122;51.988;5.892;2023-03-01T04:21:46;1.63;54.40
75363;DHT22;64122;51.988;5.892;2023-03-01T04:24:19;1.65;54.37
75363;DHT22;64122;51.988;5.892;2023-03-01T04:26:49;1.65;54.42
75363;DHT22;64122;51.988;5.892;2023-03-01T04:29:18;1.64;54.49
75363;DHT22;64122;51.988;5.892;2023-03-01T04:31:47;1.64;54.47
75363;DHT22;64122;51.988;5.892;2023-03-01T04:34:18;1.62;54.55
75363;DHT22;64122;51.988;5.892;2023-03-01T04:36:47;1.63;54.55
75363;DHT22;64122;51.988;5.892;2023-03-01T04:39:19;1.64;54.54
75363;DHT22;64122;51.988;5.892;2023-03-01T04:41:48;1.63;54.57
75363;DHT22;64122;51.988;5.892;2023-03-01T04:44:18;1.61;54.63
75363;DHT22;64122;51.988;5.892;2023-03-01T04:46:48;1.61;54.64
75363;DHT22;64122;51.988;5.892;2023-03-01T04:49:18;1.61;54.62
75363;DHT22;64122;51.988;5.892;2023-03-01T04:51:47;1.61;54.64
75363;DHT22;64122;51.988;5.892;2023-03-01T04:54:19;1.61;54.52
75363;DHT22;64122;51.988;5.892;2023-03-01T04:56:48;1.61;54.55
75363;DHT22;64122;51.988;5.892;2023-03-01T04:59:17;1.60;54.65
75363;DHT22;64122;51.988;5.892;2023-03-01T05:01:48;1.60;54.55
75363;DHT22;64122;51.988;5.892;2023-03-01T05:04:18;1.57;54.57
75363;DHT22;64122;51.988;5.892;2023-03-01T05:06:47;1.57;54.63
75363;DHT22;64122;51.988;5.892;2023-03-01T05:09:19;1.56;54.73
75363;DHT22;64122;51.988;5.892;2023-03-01T05:11:48;1.54;54.69
75363;DHT22;64122;51.988;5.892;2023-03-01T05:14:17;1.53;54.76
75363;DHT22;64122;51.988;5.892;2023-03-01T05:16:46;1.53;54.81
75363;DHT22;64122;51.988;5.892;2023-03-01T05:19:16;1.53;54.78
75363;DHT22;64122;51.988;5.892;2023-03-01T05:21:48;1.53;54.80
75363;DHT22;64122;51.988;5.892;2023-03-01T05:24:35;1.51;54.81
75363;DHT22;64122;51.988;5.892;2023-03-01T05:27:05;1.51;54.84
75363;DHT22;64122;51.988;5.892;2023-03-01T05:29:35;1.50;54.87
75363;DHT22;64122;51.988;5.892;2023-03-01T05:32:05;1.49;54.87
75363;DHT22;64122;51.988;5.892;2023-03-01T05:34:36;1.49;54.97
75363;DHT22;64122;51.988;5.892;2023-03-01T05:37:05;1.49;54.96
75363;DHT22;64122;51.988;5.892;2023-03-01T05:39:37;1.48;54.97
75363;DHT22;64122;51.988;5.892;2023-03-01T05:42:10;1.48;55.04
75363;DHT22;64122;51.988;5.892;2023-03-01T05:44:39;1.45;55.10
75363;DHT22;64122;51.988;5.892;2023-03-01T05:47:08;1.45;55.18
75363;DHT22;64122;51.988;5.892;2023-03-01T05:49:38;1.43;55.29
75363;DHT22;64122;51.988;5.892;2023-03-01T05:52:07;1.41;55.44
75363;DHT22;64122;51.988;5.892;2023-03-01T05:54:39;1.42;55.36
75363;DHT22;64122;51.988;5.892;2023-03-01T05:57:09;1.41;55.48
75363;DHT22;64122;51.988;5.892;2023-03-01T05:59:38;1.41;55.42
75363;DHT22;64122;51.988;5.892;2023-03-01T06:02:07;1.41;55.46
75363;DHT22;64122;51.988;5.892;2023-03-01T06:04:37;1.43;55.48
75363;DHT22;64122;51.988;5.892;2023-03-01T06:07:06;1.45;55.51
75363;DHT22;64122;51.988;5.892;2023-03-01T06:09:35;1.46;55.53
75363;DHT22;64122;51.988;5.892;2023-03-01T06:12:07;1.45;55.50
75363;DHT22;64122;51.988;5.892;2023-03-01T06:14:37;1.42;55.60
75363;DHT22;64122;51.988;5.892;2023-03-01T06:17:06;1.43;55.64
75363;DHT22;64122;51.988;5.892;2023-03-01T06:19:35;1.40;55.71
75363;DHT22;64122;51.988;5.892;2023-03-01T06:22:04;1.42;55.74
75363;DHT22;64122;51.988;5.892;2023-03-01T06:24:34;1.40;55.77
75363;DHT22;64122;51.988;5.892;2023-03-01T06:27:03;1.42;55.73
75363;DHT22;64122;51.988;5.892;2023-03-01T06:29:35;1.45;55.68
75363;DHT22;64122;51.988;5.892;2023-03-01T06:32:05;1.42;55.79
75363;DHT22;64122;51.988;5.892;2023-03-01T06:34:34;1.46;55.72
75363;DHT22;64122;51.988;5.892;2023-03-01T06:37:04;1.47;55.77
75363;DHT22;64122;51.988;5.892;2023-03-01T06:39:34;1.49;55.74
75363;DHT22;64122;51.988;5.892;2023-03-01T06:42:03;1.50;55.71
75363;DHT22;64122;51.988;5.892;2023-03-01T06:44:38;1.54;55.60
75363;DHT22;64122;51.988;5.892;2023-03-01T06:47:07;1.58;55.63
75363;DHT22;64122;51.988;5.892;2023-03-01T06:49:36;1.65;55.63
75363;DHT22;64122;51.988;5.892;2023-03-01T06:52:05;1.71;55.64
75363;DHT22;64122;51.988;5.892;2023-03-01T06:54:35;1.78;55.41
75363;DHT22;64122;51.988;5.892;2023-03-01T06:57:04;1.84;55.33
75363;DHT22;64122;51.988;5.892;2023-03-01T06:59:33;1.91;55.23
75363;DHT22;64122;51.988;5.892;2023-03-01T07:02:05;1.97;54.97
75363;DHT22;64122;51.988;5.892;2023-03-01T07:04:34;2.00;54.97
75363;DHT22;64122;51.988;5.892;2023-03-01T07:07:04;2.06;54.97
75363;DHT22;64122;51.988;5.892;2023-03-01T07:09:33;2.09;54.80
75363;DHT22;64122;51.988;5.892;2023-03-01T07:12:03;2.17;54.68
75363;DHT22;64122;51.988;5.892;2023-03-01T07:14:32;2.24;54.59
75363;DHT22;64122;51.988;5.892;2023-03-01T07:17:01;2.29;54.45
75363;DHT22;64122;51.988;5.892;2023-03-01T07:19:33;2.37;54.22
75363;DHT22;64122;51.988;5.892;2023-03-01T07:22:03;2.55;53.88
75363;DHT22;64122;51.988;5.892;2023-03-01T07:24:33;4.65;48.99
75363;DHT22;64122;51.988;5.892;2023-03-01T07:27:03;6.36;45.04
75363;DHT22;64122;51.988;5.892;2023-03-01T07:29:32;7.64;42.24
75363;DHT22;64122;51.988;5.892;2023-03-01T07:32:02;8.26;40.80
75363;DHT22;64122;51.988;5.892;2023-03-01T07:34:35;8.45;40.44
75363;DHT22;64122;51.988;5.892;2023-03-01T07:37:04;8.27;40.65
75363;DHT22;64122;51.988;5.892;2023-03-01T07:39:33;7.78;41.47
75363;DHT22;64122;51.988;5.892;2023-03-01T07:42:02;7.07;42.84
75363;DHT22;64122;51.988;5.892;2023-03-01T07:44:33;6.22;44.70
75363;DHT22;64122;51.988;5.892;2023-03-01T07:47:03;5.59;46.25
75363;DHT22;64122;51.988;5.892;2023-03-01T07:49:35;5.20;47.19
75363;DHT22;64122;51.988;5.892;2023-03-01T07:52:04;5.02;47.90
75363;DHT22;64122;51.988;5.892;2023-03-01T07:54:33;4.88;48.08
75363;DHT22;64122;51.988;5.892;2023-03-01T07:57:03;4.83;48.29
75363;DHT22;64122;51.988;5.892;2023-03-01T07:59:32;4.80;48.44
75363;DHT22;64122;51.988;5.892;2023-03-01T08:02:01;4.80;48.46
75363;DHT22;64122;51.988;5.892;2023-03-01T08:04:34;4.82;48.46
75363;DHT22;64122;51.988;5.892;2023-03-01T08:07:05;4.84;48.44
75363;DHT22;64122;51.988;5.892;2023-03-01T08:09:35;4.89;48.57
75363;DHT22;64122;51.988;5.892;2023-03-01T08:12:05;4.91;48.77
75363;DHT22;64122;51.988;5.892;2023-03-01T08:14:34;4.94;48.77
75363;DHT22;64122;51.988;5.892;2023-03-01T08:17:04;5.08;48.36
75363;DHT22;64122;51.988;5.892;2023-03-01T08:19:36;7.08;44.06
75363;DHT22;64122;51.988;5.892;2023-03-01T08:22:05;10.16;37.85
75363;DHT22;64122;51.988;5.892;2023-03-01T08:24:34;12.45;33.87
75363;DHT22;64122;51.988;5.892;2023-03-01T08:27:04;14.26;30.93
75363;DHT22;64122;51.988;5.892;2023-03-01T08:29:33;15.17;29.03
75363;DHT22;64122;51.988;5.892;2023-03-01T08:32:03;15.86;27.85
75363;DHT22;64122;51.988;5.892;2023-03-01T08:34:35;16.79;26.84
75363;DHT22;64122;51.988;5.892;2023-03-01T08:37:04;17.38;25.77
75363;DHT22;64122;51.988;5.892;2023-03-01T08:39:33;17.32;24.79
75363;DHT22;64122;51.988;5.892;2023-03-01T08:42:03;17.35;24.98
75363;DHT22;64122;51.988;5.892;2023-03-01T08:44:32;17.76;24.37
75363;DHT22;64122;51.988;5.892;2023-03-01T08:47:01;18.19;24.01
75363;DHT22;64122;51.988;5.892;2023-03-01T08:49:31;18.58;23.84
75363;DHT22;64122;51.988;5.892;2023-03-01T08:52:03;18.74;22.78
75363;DHT22;64122;51.988;5.892;2023-03-01T08:54:33;18.72;22.74
75363;DHT22;64122;51.988;5.892;2023-03-01T08:57:02;18.46;22.59
75363;DHT22;64122;51.988;5.892;2023-03-01T08:59:31;17.93;22.92
75363;DHT22;64122;51.988;5.892;2023-03-01T09:02:03;17.96;22.80
75363;DHT22;64122;51.988;5.892;2023-03-01T09:04:32;18.20;22.72
75363;DHT22;64122;51.988;5.892;2023-03-01T09:07:04;17.99;22.69
75363;DHT22;64122;51.988;5.892;2023-03-01T09:09:34;17.68;22.83
75363;DHT22;64122;51.988;5.892;2023-03-01T09:12:04;17.32;23.08
75363;DHT22;64122;51.988;5.892;2023-03-01T09:14:33;17.14;23.36
75363;DHT22;64122;51.988;5.892;2023-03-01T09:17:04;17.25;22.96
75363;DHT22;64122;51.988;5.892;2023-03-01T09:19:33;17.08;23.14
75363;DHT22;64122;51.988;5.892;2023-03-01T09:22:05;16.77;23.27
75363;DHT22;64122;51.988;5.892;2023-03-01T09:24:34;16.25;23.53
75363;DHT22;64122;51.988;5.892;2023-03-01T09:27:03;15.77;24.19
75363;DHT22;64122;51.988;5.892;2023-03-01T09:29:36;15.83;24.02
75363;DHT22;64122;51.988;5.892;2023-03-01T09:32:06;15.70;24.20
75363;DHT22;64122;51.988;5.892;2023-03-01T09:34:36;15.24;24.64
75363;DHT22;64122;51.988;5.892;2023-03-01T09:37:29;15.21;24.69
75363;DHT22;64122;51.988;5.892;2023-03-01T09:39:58;15.03;24.85
75363;DHT22;64122;51.988;5.892;2023-03-01T09:42:29;14.85;25.25
75363;DHT22;64122;51.988;5.892;2023-03-01T09:45:03;14.75;25.33
75363;DHT22;64122;51.988;5.892;2023-03-01T09:47:34;14.55;25.65
75363;DHT22;64122;51.988;5.892;2023-03-01T09:50:08;14.11;25.88
75363;DHT22;64122;51.988;5.892;2023-03-01T09:52:42;13.44;27.02
75363;DHT22;64122;51.988;5.892;2023-03-01T09:55:14;13.30;27.42
75363;DHT22;64122;51.988;5.892;2023-03-01T09:57:48;13.33;27.33
75363;DHT22;64122;51.988;5.892;2023-03-01T10:00:37;12.65;28.50
75363;DHT22;64122;51.988;5.892;2023-03-01T10:03:14;12.15;29.27
75363;DHT22;64122;51.988;5.892;2023-03-01T10:05:52;11.58;29.98
75363;DHT22;64122;51.988;5.892;2023-03-01T10:08:34;11.12;30.74
75363;DHT22;64122;51.988;5.892;2023-03-01T10:11:18;10.68;31.25
75363;DHT22;64122;51.988;5.892;2023-03-01T10:13:54;10.28;32.28
75363;DHT22;64122;51.988;5.892;2023-03-01T10:16:28;10.11;32.59
75363;DHT22;64122;51.988;5.892;2023-03-01T10:19:03;9.96;33.06
75363;DHT22;64122;51.988;5.892;2023-03-01T10:21:38;9.85;33.56
75363;DHT22;64122;51.988;5.892;2023-03-01T10:24:15;9.82;33.73
75363;DHT22;64122;51.988;5.892;2023-03-01T10:26:50;9.76;34.32
75363;DHT22;64122;51.988;5.892;2023-03-01T10:29:26;9.63;34.19
75363;DHT22;64122;51.988;5.892;2023-03-01T10:31:57;9.53;34.64
75363;DHT22;64122;51.988;5.892;2023-03-01T10:34:29;9.39;34.81
75363;DHT22;64122;51.988;5.892;2023-03-01T10:37:09;9.44;35.01
75363;DHT22;64122;51.988;5.892;2023-03-01T10:40:00;9.57;34.95
75363;DHT22;64122;51.988;5.892;2023-03-01T10:42:33;9.81;34.73
75363;DHT22;64122;51.988;5.892;2023-03-01T10:45:16;9.84;34.67
75363;DHT22;64122;51.988;5.892;2023-03-01T10:47:45;9.81;34.48
75363;DHT22;64122;51.988;5.892;2023-03-01T10:50:19;9.69;34.50
75363;DHT22;64122;51.988;5.892;2023-03-01T10:53:00;9.55;34.77
75363;DHT22;64122;51.988;5.892;2023-03-01T10:55:35;9.71;34.66
75363;DHT22;64122;51.988;5.892;2023-03-01T10:58:16;9.46;34.18
75363;DHT22;64122;51.988;5.892;2023-03-01T11:00:49;9.45;34.35
75363;DHT22;64122;51.988;5.892;2023-03-01T11:03:21;9.50;34.44
75363;DHT22;64122;51.988;5.892;2023-03-01T11:05:57;9.59;34.44
75363;DHT22;64122;51.988;5.892;2023-03-01T11:08:36;9.64;34.05
75363;DHT22;64122;51.988;5.892;2023-03-01T11:11:15;9.69;33.98
75363;DHT22;64122;51.988;5.892;2023-03-01T11:13:52;9.55;33.93
75363;DHT22;64122;51.988;5.892;2023-03-01T11:16:31;9.49;34.13
75363;DHT22;64122;51.988;5.892;2023-03-01T11:19:15;9.53;34.20
75363;DHT22;64122;51.988;5.892;2023-03-01T11:21:58;9.59;34.26
75363;DHT22;64122;51.988;5.892;2023-03-01T11:24:36;9.60;34.43
75363;DHT22;64122;51.988;5.892;2023-03-01T11:27:16;9.61;34.43
75363;DHT22;64122;51.988;5.892;2023-03-01T11:29:50;9.65;34.10
75363;DHT22;64122;51.988;5.892;2023-03-01T11:32:24;9.64;34.12
75363;DHT22;64122;51.988;5.892;2023-03-01T11:34:57;9.65;34.24
75363;DHT22;64122;51.988;5.892;2023-03-01T11:37:35;9.68;34.66
75363;DHT22;64122;51.988;5.892;2023-03-01T11:40:23;9.61;33.43
75363;DHT22;64122;51.988;5.892;2023-03-01T11:43:04;9.57;33.33
75363;DHT22;64122;51.988;5.892;2023-03-01T11:45:48;9.50;33.34
75363;DHT22;64122;51.988;5.892;2023-03-01T11:48:36;9.38;33.05
75363;DHT22;64122;51.988;5.892;2023-03-01T11:51:16;9.27;33.73
75363;DHT22;64122;51.988;5.892;2023-03-01T11:54:05;9.19;33.89
75363;DHT22;64122;51.988;5.892;2023-03-01T11:56:38;9.25;34.29
75363;DHT22;64122;51.988;5.892;2023-03-01T11:59:43;9.26;34.15
75363;DHT22;64122;51.988;5.892;2023-03-01T12:02:27;9.30;34.39
75363;DHT22;64122;51.988;5.892;2023-03-01T12:05:17;9.35;34.21
75363;DHT22;64122;51.988;5.892;2023-03-01T12:07:54;9.27;34.06
75363;DHT22;64122;51.988;5.892;2023-03-01T12:10:27;9.37;34.36
75363;DHT22;64122;51.988;5.892;2023-03-01T12:13:23;9.48;34.07
75363;DHT22;64122;51.988;5.892;2023-03-01T12:16:12;9.57;34.10
75363;DHT22;64122;51.988;5.892;2023-03-01T12:21:56;9.41;33.82
75363;DHT22;64122;51.988;5.892;2023-03-01T12:27:31;9.41;34.04
75363;DHT22;64122;51.988;5.892;2023-03-01T12:30:16;9.39;33.72
75363;DHT22;64122;51.988;5.892;2023-03-01T12:32:55;9.32;33.75
75363;DHT22;64122;51.988;5.892;2023-03-01T12:35:48;9.27;33.33
75363;DHT22;64122;51.988;5.892;2023-03-01T12:38:37;9.19;33.51
75363;DHT22;64122;51.988;5.892;2023-03-01T12:44:15;9.31;33.99
75363;DHT22;64122;51.988;5.892;2023-03-01T12:47:01;9.38;34.13
75363;DHT22;64122;51.988;5.892;2023-03-01T12:49:39;9.37;33.37
75363;DHT22;64122;51.988;5.892;2023-03-01T12:52:13;9.40;33.22
75363;DHT22;64122;51.988;5.892;2023-03-01T12:54:44;9.37;33.02
75363;DHT22;64122;51.988;5.892;2023-03-01T12:57:18;9.41;33.07
75363;DHT22;64122;51.988;5.892;2023-03-01T13:00:00;9.53;33.18
75363;DHT22;64122;51.988;5.892;2023-03-01T13:02:37;9.57;33.58
75363;DHT22;64122;51.988;5.892;2023-03-01T13:05:24;9.63;33.41
75363;DHT22;64122;51.988;5.892;2023-03-01T13:08:03;9.65;33.47
75363;DHT22;64122;51.988;5.892;2023-03-01T13:10:42;9.74;33.50
75363;DHT22;64122;51.988;5.892;2023-03-01T13:13:18;9.83;33.09
75363;DHT22;64122;51.988;5.892;2023-03-01T13:15:48;9.82;33.38
75363;DHT22;64122;51.988;5.892;2023-03-01T13:18:32;9.72;32.97
75363;DHT22;64122;51.988;5.892;2023-03-01T13:21:04;9.80;33.60
75363;DHT22;64122;51.988;5.892;2023-03-01T13:23:37;9.95;33.40
75363;DHT22;64122;51.988;5.892;2023-03-01T13:26:17;10.07;32.93
75363;DHT22;64122;51.988;5.892;2023-03-01T13:28:52;10.04;31.95
75363;DHT22;64122;51.988;5.892;2023-03-01T13:34:47;10.00;31.91
75363;DHT22;64122;51.988;5.892;2023-03-01T13:37:25;10.07;32.15
75363;DHT22;64122;51.988;5.892;2023-03-01T13:39:57;10.11;32.18
75363;DHT22;64122;51.988;5.892;2023-03-01T13:42:39;10.13;32.33
75363;DHT22;64122;51.988;5.892;2023-03-01T13:45:21;10.08;32.04
75363;DHT22;64122;51.988;5.892;2023-03-01T13:47:55;10.11;32.09
75363;DHT22;64122;51.988;5.892;2023-03-01T13:50:28;10.13;32.22
75363;DHT22;64122;51.988;5.892;2023-03-01T13:53:03;10.10;32.45
75363;DHT22;64122;51.988;5.892;2023-03-01T13:55:38;10.16;32.16
75363;DHT22;64122;51.988;5.892;2023-03-01T13:58:20;10.23;31.43
75363;DHT22;64122;51.988;5.892;2023-03-01T14:00:59;10.23;31.77
75363;DHT22;64122;51.988;5.892;2023-03-01T14:03:29;10.27;31.68
75363;DHT22;64122;51.988;5.892;2023-03-01T14:06:03;10.24;31.90
75363;DHT22;64122;51.988;5.892;2023-03-01T14:08:36;10.31;31.57
75363;DHT22;64122;51.988;5.892;2023-03-01T14:11:34;10.35;31.54
75363;DHT22;64122;51.988;5.892;2023-03-01T14:14:14;10.44;31.97
75363;DHT22;64122;51.988;5.892;2023-03-01T14:16:53;10.35;31.96
75363;DHT22;64122;51.988;5.892;2023-03-01T14:19:24;10.26;32.36
75363;DHT22;64122;51.988;5.892;2023-03-01T14:22:04;10.15;32.22
75363;DHT22;64122;51.988;5.892;2023-03-01T14:24:39;10.01;32.22
75363;DHT22;64122;51.988;5.892;2023-03-01T14:27:11;9.93;32.31
75363;DHT22;64122;51.988;5.892;2023-03-01T14:29:41;9.81;32.54
75363;DHT22;64122;51.988;5.892;2023-03-01T14:32:12;9.82;32.53
75363;DHT22;64122;51.988;5.892;2023-03-01T14:34:45;9.76;32.63
75363;DHT22;64122;51.988;5.892;2023-03-01T14:37:20;9.79;32.48
75363;DHT22;64122;51.988;5.892;2023-03-01T14:39:53;9.80;32.60
75363;DHT22;64122;51.988;5.892;2023-03-01T14:42:24;9.92;32.60
75363;DHT22;64122;51.988;5.892;2023-03-01T14:44:55;9.91;32.51
75363;DHT22;64122;51.988;5.892;2023-03-01T14:47:29;9.78;32.39
75363;DHT22;64122;51.988;5.892;2023-03-01T14:50:01;9.76;32.28
75363;DHT22;64122;51.988;5.892;2023-03-01T14:52:36;9.70;32.49
75363;DHT22;64122;51.988;5.892;2023-03-01T14:55:16;9.68;32.38
75363;DHT22;64122;51.988;5.892;2023-03-01T14:57:48;9.77;32.31
75363;DHT22;64122;51.988;5.892;2023-03-01T15:00:21;9.75;32.46
75363;DHT22;64122;51.988;5.892;2023-03-01T15:02:52;9.82;32.03
75363;DHT22;64122;51.988;5.892;2023-03-01T15:05:26;9.83;31.88
75363;DHT22;64122;51.988;5.892;2023-03-01T15:07:57;9.72;31.86
75363;DHT22;64122;51.988;5.892;2023-03-01T15:10:32;9.69;31.93
75363;DHT22;64122;51.988;5.892;2023-03-01T15:13:12;9.74;32.15
75363;DHT22;64122;51.988;5.892;2023-03-01T15:15:43;9.74;32.09
75363;DHT22;64122;51.988;5.892;2023-03-01T15:18:15;9.74;32.25
75363;DHT22;64122;51.988;5.892;2023-03-01T15:20:46;9.90;31.70
75363;DHT22;64122;51.988;5.892;2023-03-01T15:23:22;9.83;31.87
75363;DHT22;64122;51.988;5.892;2023-03-01T15:25:55;9.69;32.00
75363;DHT22;64122;51.988;5.892;2023-03-01T15:28:27;9.56;32.37
75363;DHT22;64122;51.988;5.892;2023-03-01T15:31:00;9.52;32.80
75363;DHT22;64122;51.988;5.892;2023-03-01T15:33:34;9.54;32.97
75363;DHT22;64122;51.988;5.892;2023-03-01T15:36:04;9.30;32.83
75363;DHT22;64122;51.988;5.892;2023-03-01T15:38:54;9.27;33.01
75363;DHT22;64122;51.988;5.892;2023-03-01T15:41:28;9.21;33.63
75363;DHT22;64122;51.988;5.892;2023-03-01T15:44:00;9.30;33.66
75363;DHT22;64122;51.988;5.892;2023-03-01T15:46:31;9.31;33.99
75363;DHT22;64122;51.988;5.892;2023-03-01T15:49:03;9.30;34.23
75363;DHT22;64122;51.988;5.892;2023-03-01T15:51:35;9.30;34.00
75363;DHT22;64122;51.988;5.892;2023-03-01T15:54:07;9.27;34.08
75363;DHT22;64122;51.988;5.892;2023-03-01T15:56:43;9.25;34.25
75363;DHT22;64122;51.988;5.892;2023-03-01T15:59:13;9.27;34.28
75363;DHT22;64122;51.988;5.892;2023-03-01T16:01:42;9.22;34.32
75363;DHT22;64122;51.988;5.892;2023-03-01T16:04:16;9.17;34.23
75363;DHT22;64122;51.988;5.892;2023-03-01T16:06:50;9.12;34.02
75363;DHT22;64122;51.988;5.892;2023-03-01T16:09:21;9.01;33.46
75363;DHT22;64122;51.988;5.892;2023-03-01T16:11:54;8.93;33.57
75363;DHT22;64122;51.988;5.892;2023-03-01T16:14:23;8.85;33.44
75363;DHT22;64122;51.988;5.892;2023-03-01T16:16:52;8.79;33.51
75363;DHT22;64122;51.988;5.892;2023-03-01T16:19:22;8.80;33.54
75363;DHT22;64122;51.988;5.892;2023-03-01T16:21:51;8.73;33.51
75363;DHT22;64122;51.988;5.892;2023-03-01T16:24:21;8.68;33.71
75363;DHT22;64122;51.988;5.892;2023-03-01T16:26:54;8.62;33.96
75363;DHT22;64122;51.988;5.892;2023-03-01T16:29:23;8.55;33.84
75363;DHT22;64122;51.988;5.892;2023-03-01T16:31:53;8.51;34.16
75363;DHT22;64122;51.988;5.892;2023-03-01T16:34:22;8.47;34.18